sensor_id;sensor_type;location;lat;lon;timestamp;P1;durP1;ratioP1;P2;durP2;ratioP2
52438;SDS011;73188;52.948;6.012;2024-02-21T00:09:17;811.28;;;297.02;;
52438;SDS011;73188;52.948;6.012;2024-02-21T00:19:45;814.10;;;291.13;;
52438;SDS011;73188;52.948;6.012;2024-02-21T00:30:11;804.03;;;281.63;;
52438;SDS011;73188;52.948;6.012;2024-02-21T00:40:37;807.05;;;282.10;;
52438;SDS011;73188;52.948;6.012;2024-02-21T00:51:03;813.13;;;288.73;;
52438;SDS011;73188;52.948;6.012;2024-02-21T01:01:29;820.15;;;286.42;;
52438;SDS011;73188;52.948;6.012;2024-02-21T01:11:55;819.72;;;314.35;;
52438;SDS011;73188;52.948;6.012;2024-02-21T01:22:20;839.40;;;296.25;;
52438;SDS011;73188;52.948;6.012;2024-02-21T01:32:46;831.65;;;312.52;;
52438;SDS011;73188;52.948;6.012;2024-02-21T01:43:16;829.42;;;289.23;;
52438;SDS011;73188;52.948;6.012;2024-02-21T01:53:46;851.13;;;290.70;;
52438;SDS011;73188;52.948;6.012;2024-02-21T02:04:12;822.67;;;300.95;;
52438;SDS011;73188;52.948;6.012;2024-02-21T02:14:38;804.42;;;295.08;;
52438;SDS011;73188;52.948;6.012;2024-02-21T02:25:04;834.25;;;294.70;;
52438;SDS011;73188;52.948;6.012;2024-02-21T02:35:30;849.40;;;297.83;;
52438;SDS011;73188;52.948;6.012;2024-02-21T02:45:57;825.38;;;290.55;;
52438;SDS011;73188;52.948;6.012;2024-02-21T02:56:23;818.00;;;284.63;;
52438;SDS011;73188;52.948;6.012;2024-02-21T03:06:49;788.90;;;296.65;;
52438;SDS011;73188;52.948;6.012;2024-02-21T03:17:15;828.03;;;309.27;;
52438;SDS011;73188;52.948;6.012;2024-02-21T03:27:41;829.05;;;290.08;;
52438;SDS011;73188;52.948;6.012;2024-02-21T03:38:07;835.28;;;304.48;;
52438;SDS011;73188;52.948;6.012;2024-02-21T03:48:33;813.20;;;285.90;;
52438;SDS011;73188;52.948;6.012;2024-02-21T03:58:59;808.33;;;295.42;;
52438;SDS011;73188;52.948;6.012;2024-02-21T04:09:24;842.13;;;294.60;;
52438;SDS011;73188;52.948;6.012;2024-02-21T04:19:50;841.20;;;301.88;;
52438;SDS011;73188;52.948;6.012;2024-02-21T04:30:27;810.03;;;284.33;;
52438;SDS011;73188;52.948;6.012;2024-02-21T04:40:53;817.58;;;284.92;;
52438;SDS011;73188;52.948;6.012;2024-02-21T04:51:18;812.60;;;287.10;;
52438;SDS011;73188;52.948;6.012;2024-02-21T05:01:44;798.97;;;295.50;;
52438;SDS011;73188;52.948;6.012;2024-02-21T05:12:10;807.63;;;283.27;;
52438;SDS011;73188;52.948;6.012;2024-02-21T05:22:36;798.25;;;298.23;;
52438;SDS011;73188;52.948;6.012;2024-02-21T05:33:05;810.33;;;283.33;;
52438;SDS011;73188;52.948;6.012;2024-02-21T05:43:31;832.40;;;286.42;;
52438;SDS011;73188;52.948;6.012;2024-02-21T05:53:57;811.38;;;297.92;;
52438;SDS011;73188;52.948;6.012;2024-02-21T06:04:23;835.83;;;290.58;;
52438;SDS011;73188;52.948;6.012;2024-02-21T06:14:49;850.05;;;297.23;;
52438;SDS011;73188;52.948;6.012;2024-02-21T06:25:14;815.85;;;298.92;;
52438;SDS011;73188;52.948;6.012;2024-02-21T06:35:40;850.00;;;312.05;;
52438;SDS011;73188;52.948;6.012;2024-02-21T06:46:07;841.22;;;308.60;;
52438;SDS011;73188;52.948;6.012;2024-02-21T06:56:33;864.35;;;313.95;;
52438;SDS011;73188;52.948;6.012;2024-02-21T07:06:59;837.80;;;291.60;;
52438;SDS011;73188;52.948;6.012;2024-02-21T07:17:25;865.25;;;303.80;;
52438;SDS011;73188;52.948;6.012;2024-02-21T07:27:51;869.05;;;309.10;;
52438;SDS011;73188;52.948;6.012;2024-02-21T07:38:17;867.58;;;304.27;;
52438;SDS011;73188;52.948;6.012;2024-02-21T07:48:45;865.47;;;317.60;;
52438;SDS011;73188;52.948;6.012;2024-02-21T07:59:11;852.47;;;312.15;;
52438;SDS011;73188;52.948;6.012;2024-02-21T08:09:39;864.75;;;317.80;;
52438;SDS011;73188;52.948;6.012;2024-02-21T08:20:05;840.05;;;307.02;;
52438;SDS011;73188;52.948;6.012;2024-02-21T08:30:32;865.60;;;308.60;;
52438;SDS011;73188;52.948;6.012;2024-02-21T08:40:57;876.47;;;320.05;;
52438;SDS011;73188;52.948;6.012;2024-02-21T08:51:23;865.35;;;303.08;;
52438;SDS011;73188;52.948;6.012;2024-02-21T09:01:49;845.90;;;306.98;;
52438;SDS011;73188;52.948;6.012;2024-02-21T09:12:17;884.22;;;310.58;;
52438;SDS011;73188;52.948;6.012;2024-02-21T09:22:43;883.42;;;321.10;;
52438;SDS011;73188;52.948;6.012;2024-02-21T09:33:08;876.58;;;320.05;;
52438;SDS011;73188;52.948;6.012;2024-02-21T09:43:34;859.78;;;301.05;;
52438;SDS011;73188;52.948;6.012;2024-02-21T09:54:02;838.97;;;292.27;;
52438;SDS011;73188;52.948;6.012;2024-02-21T10:04:28;865.35;;;306.25;;
52438;SDS011;73188;52.948;6.012;2024-02-21T10:15:05;838.85;;;292.95;;
52438;SDS011;73188;52.948;6.012;2024-02-21T10:25:31;832.90;;;293.70;;
52438;SDS011;73188;52.948;6.012;2024-02-21T10:36:05;849.17;;;314.83;;
52438;SDS011;73188;52.948;6.012;2024-02-21T10:46:35;850.17;;;302.80;;
52438;SDS011;73188;52.948;6.012;2024-02-21T10:57:02;891.45;;;315.33;;
52438;SDS011;73188;52.948;6.012;2024-02-21T11:07:29;884.35;;;326.40;;
52438;SDS011;73188;52.948;6.012;2024-02-21T11:17:57;905.25;;;330.67;;
52438;SDS011;73188;52.948;6.012;2024-02-21T11:28:26;909.78;;;307.75;;
52438;SDS011;73188;52.948;6.012;2024-02-21T11:38:52;943.55;;;335.92;;
52438;SDS011;73188;52.948;6.012;2024-02-21T11:49:18;889.75;;;309.33;;
52438;SDS011;73188;52.948;6.012;2024-02-21T11:59:44;898.53;;;304.80;;
52438;SDS011;73188;52.948;6.012;2024-02-21T12:10:11;939.40;;;344.92;;
52438;SDS011;73188;52.948;6.012;2024-02-21T12:20:38;943.80;;;321.35;;
52438;SDS011;73188;52.948;6.012;2024-02-21T12:31:07;902.35;;;332.77;;
52438;SDS011;73188;52.948;6.012;2024-02-21T12:41:33;943.95;;;347.92;;
52438;SDS011;73188;52.948;6.012;2024-02-21T12:52:00;946.58;;;321.38;;
52438;SDS011;73188;52.948;6.012;2024-02-21T13:02:26;917.67;;;313.65;;
52438;SDS011;73188;52.948;6.012;2024-02-21T13:12:52;973.40;;;367.08;;
52438;SDS011;73188;52.948;6.012;2024-02-21T13:23:18;941.17;;;353.80;;
52438;SDS011;73188;52.948;6.012;2024-02-21T13:33:46;928.65;;;331.58;;
52438;SDS011;73188;52.948;6.012;2024-02-21T13:44:12;918.97;;;317.13;;
52438;SDS011;73188;52.948;6.012;2024-02-21T13:54:37;912.45;;;318.52;;
52438;SDS011;73188;52.948;6.012;2024-02-21T14:05:03;902.88;;;329.75;;
52438;SDS011;73188;52.948;6.012;2024-02-21T14:15:31;906.67;;;317.95;;
52438;SDS011;73188;52.948;6.012;2024-02-21T14:25:57;941.88;;;344.08;;
52438;SDS011;73188;52.948;6.012;2024-02-21T14:36:23;949.75;;;334.20;;
52438;SDS011;73188;52.948;6.012;2024-02-21T14:46:49;941.13;;;343.75;;
52438;SDS011;73188;52.948;6.012;2024-02-21T14:57:14;929.78;;;338.30;;
52438;SDS011;73188;52.948;6.012;2024-02-21T15:07:40;945.13;;;344.80;;
52438;SDS011;73188;52.948;6.012;2024-02-21T15:18:07;928.80;;;334.33;;
52438;SDS011;73188;52.948;6.012;2024-02-21T15:28:33;920.95;;;329.77;;
52438;SDS011;73188;52.948;6.012;2024-02-21T15:38:59;919.72;;;332.00;;
52438;SDS011;73188;52.948;6.012;2024-02-21T15:49:26;913.67;;;315.60;;
52438;SDS011;73188;52.948;6.012;2024-02-21T15:59:52;907.25;;;322.45;;
52438;SDS011;73188;52.948;6.012;2024-02-21T16:10:19;884.65;;;326.85;;
52438;SDS011;73188;52.948;6.012;2024-02-21T16:20:45;907.28;;;310.73;;
52438;SDS011;73188;52.948;6.012;2024-02-21T16:31:13;898.05;;;336.17;;
52438;SDS011;73188;52.948;6.012;2024-02-21T16:41:39;848.53;;;295.58;;
52438;SDS011;73188;52.948;6.012;2024-02-21T16:52:05;878.33;;;325.85;;
52438;SDS011;73188;52.948;6.012;2024-02-21T17:02:30;873.67;;;324.48;;
52438;SDS011;73188;52.948;6.012;2024-02-21T17:12:56;902.95;;;337.30;;
52438;SDS011;73188;52.948;6.012;2024-02-21T17:23:23;882.88;;;326.05;;
52438;SDS011;73188;52.948;6.012;2024-02-21T17:33:49;877.65;;;309.63;;
52438;SDS011;73188;52.948;6.012;2024-02-21T17:44:15;893.78;;;333.58;;
52438;SDS011;73188;52.948;6.012;2024-02-21T17:54:40;897.35;;;310.98;;
52438;SDS011;73188;52.948;6.012;2024-02-21T18:05:09;876.05;;;313.90;;
52438;SDS011;73188;52.948;6.012;2024-02-21T18:15:36;886.58;;;332.60;;
52438;SDS011;73188;52.948;6.012;2024-02-21T18:26:01;874.05;;;329.63;;
52438;SDS011;73188;52.948;6.012;2024-02-21T18:36:29;874.35;;;305.63;;
52438;SDS011;73188;52.948;6.012;2024-02-21T18:46:55;860.78;;;322.45;;
52438;SDS011;73188;52.948;6.012;2024-02-21T18:57:21;849.97;;;322.38;;
52438;SDS011;73188;52.948;6.012;2024-02-21T19:07:47;855.75;;;322.95;;
52438;SDS011;73188;52.948;6.012;2024-02-21T19:18:15;867.28;;;302.92;;
52438;SDS011;73188;52.948;6.012;2024-02-21T19:28:40;856.30;;;322.08;;
52438;SDS011;73188;52.948;6.012;2024-02-21T19:39:07;882.38;;;331.20;;
52438;SDS011;73188;52.948;6.012;2024-02-21T19:49:35;843.63;;;298.83;;
52438;SDS011;73188;52.948;6.012;2024-02-21T20:00:02;860.92;;;303.33;;
52438;SDS011;73188;52.948;6.012;2024-02-21T20:10:30;875.17;;;308.63;;
52438;SDS011;73188;52.948;6.012;2024-02-21T20:20:56;856.65;;;322.63;;
52438;SDS011;73188;52.948;6.012;2024-02-21T20:31:22;841.75;;;296.83;;
52438;SDS011;73188;52.948;6.012;2024-02-21T20:41:50;842.50;;;296.25;;
52438;SDS011;73188;52.948;6.012;2024-02-21T20:52:16;862.63;;;306.27;;
52438;SDS011;73188;52.948;6.012;2024-02-21T21:02:42;870.60;;;322.30;;
52438;SDS011;73188;52.948;6.012;2024-02-21T21:13:07;886.17;;;323.35;;
52438;SDS011;73188;52.948;6.012;2024-02-21T21:23:34;889.97;;;337.60;;
52438;SDS011;73188;52.948;6.012;2024-02-21T21:34:01;886.92;;;313.92;;
52438;SDS011;73188;52.948;6.012;2024-02-21T21:44:27;875.50;;;322.85;;
52438;SDS011;73188;52.948;6.012;2024-02-21T21:54:53;875.88;;;332.85;;
52438;SDS011;73188;52.948;6.012;2024-02-21T22:05:19;861.42;;;324.33;;
52438;SDS011;73188;52.948;6.012;2024-02-21T22:15:45;859.67;;;330.25;;
52438;SDS011;73188;52.948;6.012;2024-02-21T22:26:11;852.15;;;321.30;;
52438;SDS011;73188;52.948;6.012;2024-02-21T22:36:40;875.25;;;327.38;;
52438;SDS011;73188;52.948;6.012;2024-02-21T22:47:06;841.28;;;313.88;;
52438;SDS011;73188;52.948;6.012;2024-02-21T22:57:32;841.03;;;299.08;;
52438;SDS011;73188;52.948;6.012;2024-02-21T23:07:57;843.67;;;300.05;;
52438;SDS011;73188;52.948;6.012;2024-02-21T23:18:23;847.85;;;320.15;;
52438;SDS011;73188;52.948;6.012;2024-02-21T23:28:49;872.97;;;330.17;;
52438;SDS011;73188;52.948;6.012;2024-02-21T23:39:15;852.42;;;316.67;;
52438;SDS011;73188;52.948;6.012;2024-02-21T23:49:41;863.90;;;320.38;;
